createdAt,value
2024-01-08T00:01:13.677Z,1.20
2024-01-08T00:06:15.754Z,1.10
2024-01-08T00:11:19.859Z,0.70
2024-01-08T00:16:22.173Z,0.70
2024-01-08T00:21:24.066Z,1.00
2024-01-08T00:26:26.907Z,1.00
2024-01-08T00:31:28.938Z,1.10
2024-01-08T00:36:35.382Z,1.00
2024-01-08T00:41:37.530Z,0.90
2024-01-08T00:46:40.173Z,0.90
2024-01-08T00:51:43.157Z,0.90
2024-01-08T00:56:46.645Z,0.60
2024-01-08T01:01:48.691Z,0.60
2024-01-08T01:06:50.437Z,0.80
2024-01-08T01:11:52.421Z,1.00
2024-01-08T01:16:54.253Z,0.80
2024-01-08T01:21:57.033Z,0.90
2024-01-08T01:27:00.204Z,1.20
2024-01-08T01:32:02.639Z,1.10
2024-01-08T01:37:05.800Z,1.10
2024-01-08T01:47:09.990Z,1.20
2024-01-08T01:52:13.282Z,0.90
2024-01-08T01:57:15.360Z,1.20
2024-01-08T02:02:17.517Z,1.20
2024-01-08T02:07:19.270Z,1.20
2024-01-08T02:12:21.742Z,1.10
2024-01-08T02:17:24.390Z,1.20
2024-01-08T02:22:26.134Z,1.20
2024-01-08T02:27:29.204Z,1.10
2024-01-08T02:32:31.090Z,1.20
2024-01-08T02:37:34.150Z,1.20
2024-01-08T02:42:39.965Z,1.10
2024-01-08T02:47:42.184Z,1.00
2024-01-08T02:52:45.665Z,1.00
2024-01-08T02:57:48.580Z,1.00
2024-01-08T03:02:50.377Z,1.00
2024-01-08T03:07:53.278Z,1.10
2024-01-08T03:12:56.088Z,1.00
2024-01-08T03:17:59.669Z,1.00
2024-01-08T03:23:01.580Z,1.00
2024-01-08T03:28:04.017Z,1.20
2024-01-08T03:33:07.089Z,1.10
2024-01-08T03:38:09.409Z,1.00
2024-01-08T03:43:12.326Z,1.00
2024-01-08T03:48:14.633Z,0.90
2024-01-08T03:53:16.492Z,0.80
2024-01-08T03:58:18.648Z,0.80
2024-01-08T04:03:20.961Z,0.80
2024-01-08T04:08:23.062Z,1.00
2024-01-08T04:13:24.957Z,1.10
2024-01-08T04:18:27.159Z,0.90
2024-01-08T04:23:29.015Z,1.10
2024-01-08T04:28:30.782Z,1.10
2024-01-08T04:33:32.664Z,0.90
2024-01-08T04:38:34.548Z,0.80
2024-01-08T04:43:36.753Z,0.70
2024-01-08T04:48:38.853Z,0.70
2024-01-08T04:53:40.674Z,0.60
2024-01-08T05:03:45.205Z,0.30
2024-01-08T05:08:47.081Z,0.60
2024-01-08T05:13:48.966Z,0.70
2024-01-08T05:18:50.792Z,0.60
2024-01-08T05:23:52.822Z,0.70
2024-01-08T05:28:55.245Z,0.50
2024-01-08T05:33:57.501Z,0.60
2024-01-08T05:39:01.063Z,0.40
2024-01-08T05:44:02.979Z,0.40
2024-01-08T05:49:05.149Z,0.40
2024-01-08T05:54:07.900Z,0.70
2024-01-08T05:59:09.845Z,0.60
2024-01-08T06:04:12.256Z,0.60
2024-01-08T06:09:14.230Z,0.40
2024-01-08T06:14:16.050Z,0.50
2024-01-08T06:19:18.023Z,0.30
2024-01-08T06:24:19.819Z,0.30
2024-01-08T06:29:23.237Z,0.70
2024-01-08T06:34:25.113Z,0.80
2024-01-08T06:39:27.669Z,0.70
2024-01-08T06:44:29.752Z,2.40
2024-01-08T06:49:32.101Z,0.60
2024-01-08T06:54:33.892Z,0.80
2024-01-08T06:59:36.063Z,0.60
2024-01-08T07:04:37.900Z,0.60
2024-01-08T07:09:41.661Z,0.40
2024-01-08T07:14:51.154Z,0.40
2024-01-08T07:19:53.004Z,0.60
2024-01-08T07:24:55.124Z,0.50
2024-01-08T07:29:57.963Z,0.60
2024-01-08T07:35:01.373Z,0.40
2024-01-08T07:40:06.430Z,0.70
2024-01-08T07:45:09.161Z,0.50
2024-01-08T07:50:11.141Z,0.60
2024-01-08T07:55:13.908Z,0.50
2024-01-08T08:00:18.074Z,0.60
2024-01-08T08:05:20.859Z,0.60
2024-01-08T08:10:23.851Z,0.60
2024-01-08T08:15:25.963Z,0.50
2024-01-08T08:20:28.643Z,0.70
2024-01-08T08:25:30.483Z,0.60
2024-01-08T08:30:32.427Z,0.30
2024-01-08T08:35:35.763Z,0.30
2024-01-08T08:40:37.939Z,0.40
2024-01-08T08:45:39.790Z,0.70
2024-01-08T08:50:41.819Z,0.50
2024-01-08T08:55:44.397Z,0.50
2024-01-08T09:00:47.397Z,1.30
2024-01-08T09:05:49.868Z,0.70
2024-01-08T09:10:52.049Z,0.70
2024-01-08T09:15:53.883Z,0.80
2024-01-08T09:20:56.070Z,0.70
2024-01-08T09:25:58.217Z,0.70
2024-01-08T09:31:05.576Z,0.80
2024-01-08T09:36:08.370Z,0.30
2024-01-08T09:41:22.878Z,0.40
2024-01-08T09:46:30.665Z,0.40
2024-01-08T09:51:32.916Z,0.40
2024-01-08T09:56:34.904Z,0.60
2024-01-08T10:01:38.239Z,0.70
2024-01-08T10:06:41.137Z,2.10
2024-01-08T10:11:43.658Z,1.00
2024-01-08T10:16:55.340Z,1.10
2024-01-08T10:22:13.990Z,1.20
2024-01-08T10:27:19.572Z,1.30
2024-01-08T10:32:24.050Z,1.30
2024-01-08T10:37:27.861Z,0.90
2024-01-08T10:42:30.657Z,1.20
2024-01-08T10:47:36.351Z,1.20
2024-01-08T10:52:46.858Z,1.20
2024-01-08T10:57:59.563Z,1.10
2024-01-08T11:03:02.196Z,1.20
2024-01-08T11:08:05.750Z,1.30
2024-01-08T11:13:07.496Z,1.40
2024-01-08T11:18:25.216Z,1.20
2024-01-08T11:23:39.698Z,1.60
2024-01-08T11:28:42.721Z,1.30
2024-01-08T11:34:15.585Z,1.20
2024-01-08T11:39:18.299Z,1.30
2024-01-08T11:54:26.185Z,1.90
2024-01-08T11:59:35.322Z,1.70
2024-01-08T12:09:40.699Z,2.60
2024-01-08T12:19:49.298Z,1.90
2024-01-08T12:24:52.796Z,1.80
2024-01-08T12:29:56.362Z,2.00
2024-01-08T12:34:58.463Z,2.00
2024-01-08T12:40:01.166Z,2.00
2024-01-08T12:45:05.917Z,2.10
2024-01-08T12:50:08.295Z,2.50
2024-01-08T12:55:10.102Z,2.20
2024-01-08T13:00:14.850Z,2.10
2024-01-08T13:05:17.247Z,1.90
2024-01-08T13:10:19.065Z,1.80
2024-01-08T13:30:32.760Z,1.30
2024-01-08T13:35:34.666Z,1.60
2024-01-08T13:45:38.567Z,1.50
2024-01-08T13:50:40.522Z,1.20
2024-01-08T14:05:48.100Z,0.90
2024-01-08T14:10:51.362Z,0.90
2024-01-08T14:31:09.561Z,0.60
2024-01-08T14:41:14.988Z,0.60
2024-01-08T15:11:28.219Z,0.90
2024-01-08T15:16:30.357Z,0.60
2024-01-08T15:26:34.381Z,0.70
2024-01-08T15:41:40.627Z,0.50
2024-01-08T15:46:44.985Z,0.50
2024-01-08T15:56:48.866Z,0.60
2024-01-08T16:22:00.758Z,0.20
2024-01-08T16:57:19.496Z,0.50
2024-01-08T17:17:29.365Z,0.20
2024-01-08T17:22:32.023Z,0.20
2024-01-08T17:37:38.764Z,0.20
2024-01-08T17:42:40.491Z,-0.10
2024-01-08T17:52:44.649Z,-0.20
2024-01-08T17:57:46.339Z,0.00
2024-01-08T18:28:01.122Z,-0.20
2024-01-08T19:13:24.486Z,-0.50
2024-01-08T19:23:29.168Z,-0.40
2024-01-08T19:28:34.439Z,-0.80
2024-01-08T19:33:36.307Z,-0.50
2024-01-08T19:58:49.985Z,-1.10
2024-01-08T20:49:16.106Z,-1.20
2024-01-08T21:19:29.815Z,-1.50
2024-01-08T21:34:36.896Z,-1.40
2024-01-08T21:39:41.809Z,-1.60
2024-01-08T21:54:49.652Z,-1.80
2024-01-08T22:09:55.813Z,-1.50
2024-01-08T22:14:57.744Z,-1.50
2024-01-08T22:19:59.513Z,-1.40
2024-01-08T22:25:01.483Z,-1.50
2024-01-08T22:30:03.695Z,-1.70
2024-01-08T22:35:05.915Z,-1.40
2024-01-08T22:40:08.167Z,-1.50
2024-01-08T22:45:10.508Z,-1.60
2024-01-08T22:55:14.964Z,-1.60
2024-01-08T23:00:17.450Z,-1.60
2024-01-08T23:05:19.587Z,-1.80
2024-01-08T23:15:23.639Z,-1.60
2024-01-08T23:45:36.561Z,-1.80
2024-01-08T23:50:38.349Z,-2.20
2024-01-08T23:55:40.329Z,-1.90
